Phoenix, AZ

12:01 PM MST on September 23, 2014 (GMT -0700)
Cheery Lynn Historical District | Change Station
CLOSE
Current Station
Personal Weather Station
Location: Phoenix, AZ
Elevation: 1125 ft
Nearby Weather Stations

Elev 1125 ft 33.49 °N, 112.05 °W | Updated 1 second ago

Clear
Clear
95.5 °F
Feels Like 99 °F
N
3.8
Wind Variable Wind from South
Gusts 4.0 mph

Today
High -- | Low -- °F
--% Chance of Precip.
Yesterday
High -- | Low -- °F
Precip. -- in
6:17 AM 6:23 PM
Waning Crescent, 0% visible
Pressure 29.88 in
Visibility 10.0 miles
Clouds Few 8000 ft
Heat Index 99 °F
Dew Point 66 °F
Humidity 38%
Rainfall 0.00 in
Snow Depth 1 in , 0 in
UV 8 out of 12
Pollen 6.70 out of 12
PM2.5 Good
Flu Activity Not available.
METAR KPHX 231851Z 00000KT 10SM FEW080 34/13 A2993 RMK AO2 SLP116 FU LYR S T03440128

More Conditions Fewer Conditions

Pressure 29.88 in
Visibility 10.0 miles
Clouds Few 8000 ft
Heat Index 99 °F
Dew Point 66 °F
Humidity 38%
Rainfall 0.00 in
Snow Depth 1 in , 0 in
UV 8 out of 12
Pollen 6.70 out of 12
PM2.5 Good
Flu Activity Not available.
METAR KPHX 231851Z 00000KT 10SM FEW080 34/13 A2993 RMK AO2 SLP116 FU LYR S T03440128

More Conditions Fewer Conditions

10-Day Weather Forecast

Almanac

Astronomy

Sep. 23, 2014 Rise Set
Actual Time 6:17 AM MST 6:23 PM MST
Civil Twilight 5:52 AM MST 6:48 PM MST
Nautical Twilight 5:23 AM MST 7:17 PM MST
Astronomical Twilight 4:54 AM MST 7:46 PM MST
Moon 5:45 AM MST 6:05 PM MST
Length of Visible Light 12h 55m
Length of Day
12h 06m
Tomorrow will be 2m 3s shorter.
Waning Crescent, 0% of the Moon is Illuminated
Today
Waning Crescent
Sep 24
New
Oct 1
First Quarter
Oct 8
Full
Oct 15
Last Quarter

Today's Extremes

State Highs State Lows

Community

WunderPhotos

Upload Photos

1,755,783 photos uploaded!

Nearby

Air Quality

  Air Quality AQ Index Pollutant
Yesterday Moderate
OZONE
Yesterday Good
PM10
Current Good
PM2.5
Tuesday Moderate
OZONE
Tuesday Good
PM10
Tuesday Good
CO
Wednesday Moderate
OZONE
Wednesday Good
PM10
Wednesday Good
CO
Thursday Good
PM2.5
Thursday Good
OZONE
Thursday Good
CO

Snow Depth

Station Depth Elevation
Workman Creek 1 in 6900 ft
Promontory 0 in 7930 ft

Earthquake Activity

City Distance Mag. Time & Date
No recent earthquake activity has been reported nearby.
Minimum magnitude displayed is 2.5.

Coastal Water Temperatures

Place Temperature
No Stations Reporting

Nearby Weather Stations